sensor_id;sensor_type;location;lat;lon;timestamp;pressure;altitude;pressure_sealevel;temperature;humidity
1726;BME280;41776;48.260;8.928;2022-10-16T00:00:19;52525.59;;;-145.69;100.00
1726;BME280;41776;48.260;8.928;2022-10-16T00:02:45;52541.44;;;-145.69;100.00
1726;BME280;41776;48.260;8.928;2022-10-16T00:05:12;52559.25;;;-145.69;100.00
1726;BME280;41776;48.260;8.928;2022-10-16T00:07:38;52555.28;;;-145.69;100.00
1726;BME280;41776;48.260;8.928;2022-10-16T00:10:06;52515.69;;;-145.69;100.00
1726;BME280;41776;48.260;8.928;2022-10-16T00:12:34;52579.06;;;-145.69;100.00
1726;BME280;41776;48.260;8.928;2022-10-16T00:15:00;52551.31;;;-145.69;100.00
1726;BME280;41776;48.260;8.928;2022-10-16T00:17:27;52535.47;;;-145.69;100.00
1726;BME280;41776;48.260;8.928;2022-10-16T00:19:53;52535.47;;;-145.69;100.00
1726;BME280;41776;48.260;8.928;2022-10-16T00:22:20;52563.22;;;-145.69;100.00
1726;BME280;41776;48.260;8.928;2022-10-16T00:24:46;52547.38;;;-145.69;100.00
1726;BME280;41776;48.260;8.928;2022-10-16T00:27:13;52513.69;;;-145.69;100.00
1726;BME280;41776;48.260;8.928;2022-10-16T00:29:41;52555.28;;;-145.69;100.00
1726;BME280;41776;48.260;8.928;2022-10-16T00:32:07;52539.44;;;-145.69;100.00
1726;BME280;41776;48.260;8.928;2022-10-16T00:34:34;52503.81;;;-145.69;100.00
1726;BME280;41776;48.260;8.928;2022-10-16T00:37:00;52543.41;;;-145.69;100.00
1726;BME280;41776;48.260;8.928;2022-10-16T00:39:27;52549.34;;;-145.69;100.00
1726;BME280;41776;48.260;8.928;2022-10-16T00:41:53;52535.47;;;-145.69;100.00
1726;BME280;41776;48.260;8.928;2022-10-16T00:44:45;52527.56;;;-145.69;100.00
1726;BME280;41776;48.260;8.928;2022-10-16T00:47:18;52529.53;;;-145.69;100.00
1726;BME280;41776;48.260;8.928;2022-10-16T00:49:45;52559.25;;;-145.69;100.00
1726;BME280;41776;48.260;8.928;2022-10-16T00:52:13;52561.22;;;-145.69;100.00
1726;BME280;41776;48.260;8.928;2022-10-16T00:54:40;52527.56;;;-145.69;100.00
1726;BME280;41776;48.260;8.928;2022-10-16T00:57:07;52551.31;;;-145.69;100.00
1726;BME280;41776;48.260;8.928;2022-10-16T00:59:35;52563.22;;;-145.69;100.00
1726;BME280;41776;48.260;8.928;2022-10-16T01:02:05;52511.72;;;-145.69;100.00
1726;BME280;41776;48.260;8.928;2022-10-16T01:04:35;52549.34;;;-145.69;100.00
1726;BME280;41776;48.260;8.928;2022-10-16T01:07:07;52519.63;;;-145.69;100.00
1726;BME280;41776;48.260;8.928;2022-10-16T01:09:47;52543.41;;;-145.69;100.00
1726;BME280;41776;48.260;8.928;2022-10-16T01:12:21;52551.31;;;-145.69;100.00
1726;BME280;41776;48.260;8.928;2022-10-16T01:14:53;52535.47;;;-145.69;100.00
1726;BME280;41776;48.260;8.928;2022-10-16T01:17:28;52519.63;;;-145.69;100.00
1726;BME280;41776;48.260;8.928;2022-10-16T01:20:08;52555.28;;;-145.69;100.00
1726;BME280;41776;48.260;8.928;2022-10-16T01:22:44;52533.50;;;-145.69;100.00
1726;BME280;41776;48.260;8.928;2022-10-16T01:25:21;52539.44;;;-145.69;100.00
1726;BME280;41776;48.260;8.928;2022-10-16T01:27:51;52543.41;;;-145.69;100.00
1726;BME280;41776;48.260;8.928;2022-10-16T01:30:21;52563.22;;;-145.69;100.00
1726;BME280;41776;48.260;8.928;2022-10-16T01:32:52;52555.28;;;-145.69;100.00
1726;BME280;41776;48.260;8.928;2022-10-16T01:35:24;52515.69;;;-145.69;100.00
1726;BME280;41776;48.260;8.928;2022-10-16T01:37:54;52511.72;;;-145.69;100.00
1726;BME280;41776;48.260;8.928;2022-10-16T01:40:25;52543.41;;;-145.69;100.00
1726;BME280;41776;48.260;8.928;2022-10-16T01:42:59;52519.63;;;-145.69;100.00
1726;BME280;41776;48.260;8.928;2022-10-16T01:45:28;52507.75;;;-145.69;100.00
1726;BME280;41776;48.260;8.928;2022-10-16T01:47:56;52515.69;;;-145.69;100.00
1726;BME280;41776;48.260;8.928;2022-10-16T01:50:24;52503.81;;;-145.69;100.00
1726;BME280;41776;48.260;8.928;2022-10-16T01:52:55;52523.59;;;-145.69;100.00
1726;BME280;41776;48.260;8.928;2022-10-16T01:55:27;52507.75;;;-145.69;100.00
1726;BME280;41776;48.260;8.928;2022-10-16T01:57:57;52511.72;;;-145.69;100.00
1726;BME280;41776;48.260;8.928;2022-10-16T02:00:26;52539.44;;;-145.69;100.00
1726;BME280;41776;48.260;8.928;2022-10-16T02:02:53;52555.28;;;-145.69;100.00
1726;BME280;41776;48.260;8.928;2022-10-16T02:05:24;52545.38;;;-145.69;100.00
1726;BME280;41776;48.260;8.928;2022-10-16T02:07:52;52553.31;;;-145.69;100.00
1726;BME280;41776;48.260;8.928;2022-10-16T02:10:19;52555.28;;;-145.69;100.00
1726;BME280;41776;48.260;8.928;2022-10-16T02:12:50;52519.63;;;-145.69;100.00
1726;BME280;41776;48.260;8.928;2022-10-16T02:15:19;52563.22;;;-145.69;100.00
1726;BME280;41776;48.260;8.928;2022-10-16T02:17:46;52555.28;;;-145.69;100.00
1726;BME280;41776;48.260;8.928;2022-10-16T02:20:12;52541.44;;;-145.69;100.00
1726;BME280;41776;48.260;8.928;2022-10-16T02:22:41;52529.53;;;-145.69;100.00
1726;BME280;41776;48.260;8.928;2022-10-16T02:25:12;52499.84;;;-145.69;100.00
1726;BME280;41776;48.260;8.928;2022-10-16T02:27:54;52509.75;;;-145.69;100.00
1726;BME280;41776;48.260;8.928;2022-10-16T02:30:25;52511.72;;;-145.69;100.00
1726;BME280;41776;48.260;8.928;2022-10-16T02:32:54;52511.72;;;-145.69;100.00
1726;BME280;41776;48.260;8.928;2022-10-16T02:35:23;52527.56;;;-145.69;100.00
1726;BME280;41776;48.260;8.928;2022-10-16T02:37:50;52537.47;;;-145.69;100.00
1726;BME280;41776;48.260;8.928;2022-10-16T02:40:18;52523.59;;;-145.69;100.00
1726;BME280;41776;48.260;8.928;2022-10-16T02:42:50;52551.31;;;-145.69;100.00
1726;BME280;41776;48.260;8.928;2022-10-16T02:45:18;52517.66;;;-145.69;100.00
1726;BME280;41776;48.260;8.928;2022-10-16T02:47:46;52551.31;;;-145.69;100.00
1726;BME280;41776;48.260;8.928;2022-10-16T02:50:13;52543.41;;;-145.69;100.00
1726;BME280;41776;48.260;8.928;2022-10-16T02:52:48;52515.69;;;-145.69;100.00
1726;BME280;41776;48.260;8.928;2022-10-16T02:55:15;52531.53;;;-145.69;100.00
1726;BME280;41776;48.260;8.928;2022-10-16T02:57:42;52539.44;;;-145.69;100.00
1726;BME280;41776;48.260;8.928;2022-10-16T03:00:10;52541.44;;;-145.69;100.00
1726;BME280;41776;48.260;8.928;2022-10-16T03:02:37;52517.66;;;-145.69;100.00
1726;BME280;41776;48.260;8.928;2022-10-16T03:05:06;52527.56;;;-145.69;100.00
1726;BME280;41776;48.260;8.928;2022-10-16T03:07:33;52507.75;;;-145.69;100.00
1726;BME280;41776;48.260;8.928;2022-10-16T03:10:00;52519.63;;;-145.69;100.00
1726;BME280;41776;48.260;8.928;2022-10-16T03:12:27;52531.53;;;-145.69;100.00
1726;BME280;41776;48.260;8.928;2022-10-16T03:14:54;52525.59;;;-145.69;100.00
1726;BME280;41776;48.260;8.928;2022-10-16T03:17:21;52533.50;;;-145.69;100.00
1726;BME280;41776;48.260;8.928;2022-10-16T03:19:48;52539.44;;;-145.69;100.00
1726;BME280;41776;48.260;8.928;2022-10-16T03:22:16;52547.38;;;-145.69;100.00
1726;BME280;41776;48.260;8.928;2022-10-16T03:24:43;52539.44;;;-145.69;100.00
1726;BME280;41776;48.260;8.928;2022-10-16T03:27:09;52535.47;;;-145.69;100.00
1726;BME280;41776;48.260;8.928;2022-10-16T03:29:36;52551.31;;;-145.69;100.00
1726;BME280;41776;48.260;8.928;2022-10-16T03:32:02;52525.59;;;-145.69;100.00
1726;BME280;41776;48.260;8.928;2022-10-16T03:34:29;52559.25;;;-145.69;100.00
1726;BME280;41776;48.260;8.928;2022-10-16T03:36:56;52513.69;;;-145.69;100.00
1726;BME280;41776;48.260;8.928;2022-10-16T03:39:24;52543.41;;;-145.69;100.00
1726;BME280;41776;48.260;8.928;2022-10-16T03:41:50;52563.22;;;-145.69;100.00
1726;BME280;41776;48.260;8.928;2022-10-16T03:44:17;52551.31;;;-145.69;100.00
1726;BME280;41776;48.260;8.928;2022-10-16T03:46:43;52529.53;;;-145.69;100.00
1726;BME280;41776;48.260;8.928;2022-10-16T03:49:10;52539.44;;;-145.69;100.00
1726;BME280;41776;48.260;8.928;2022-10-16T03:51:37;52517.66;;;-145.69;100.00
1726;BME280;41776;48.260;8.928;2022-10-16T03:54:03;52519.63;;;-145.69;100.00
1726;BME280;41776;48.260;8.928;2022-10-16T03:56:31;52535.47;;;-145.69;100.00
1726;BME280;41776;48.260;8.928;2022-10-16T03:58:58;52535.47;;;-145.69;100.00
1726;BME280;41776;48.260;8.928;2022-10-16T04:01:24;52529.53;;;-145.69;100.00
1726;BME280;41776;48.260;8.928;2022-10-16T04:03:51;52527.56;;;-145.69;100.00
1726;BME280;41776;48.260;8.928;2022-10-16T04:06:17;52543.41;;;-145.69;100.00
1726;BME280;41776;48.260;8.928;2022-10-16T04:08:44;52529.53;;;-145.69;100.00
1726;BME280;41776;48.260;8.928;2022-10-16T04:11:11;52551.31;;;-145.69;100.00
1726;BME280;41776;48.260;8.928;2022-10-16T04:13:39;52491.91;;;-145.69;100.00
1726;BME280;41776;48.260;8.928;2022-10-16T04:16:05;52571.13;;;-145.69;100.00
1726;BME280;41776;48.260;8.928;2022-10-16T04:18:32;52555.28;;;-145.69;100.00
1726;BME280;41776;48.260;8.928;2022-10-16T04:21:02;52555.28;;;-145.69;100.00
1726;BME280;41776;48.260;8.928;2022-10-16T04:23:29;52531.53;;;-145.69;100.00
1726;BME280;41776;48.260;8.928;2022-10-16T04:25:55;52539.44;;;-145.69;100.00
1726;BME280;41776;48.260;8.928;2022-10-16T04:28:22;52559.25;;;-145.69;100.00
1726;BME280;41776;48.260;8.928;2022-10-16T04:30:49;52535.47;;;-145.69;100.00
1726;BME280;41776;48.260;8.928;2022-10-16T04:33:16;52545.38;;;-145.69;100.00
1726;BME280;41776;48.260;8.928;2022-10-16T04:35:43;52529.53;;;-145.69;100.00
1726;BME280;41776;48.260;8.928;2022-10-16T04:38:09;52555.28;;;-145.69;100.00
1726;BME280;41776;48.260;8.928;2022-10-16T04:40:35;52533.50;;;-145.69;100.00
1726;BME280;41776;48.260;8.928;2022-10-16T04:43:05;52559.25;;;-145.69;100.00
1726;BME280;41776;48.260;8.928;2022-10-16T04:45:32;52525.59;;;-145.69;100.00
1726;BME280;41776;48.260;8.928;2022-10-16T04:48:01;52511.72;;;-145.69;100.00
1726;BME280;41776;48.260;8.928;2022-10-16T04:50:28;52543.41;;;-145.69;100.00
1726;BME280;41776;48.260;8.928;2022-10-16T04:52:54;52543.41;;;-145.69;100.00
1726;BME280;41776;48.260;8.928;2022-10-16T04:55:21;52527.56;;;-145.69;100.00
1726;BME280;41776;48.260;8.928;2022-10-16T04:57:47;52519.63;;;-145.69;100.00
1726;BME280;41776;48.260;8.928;2022-10-16T05:00:14;52551.31;;;-145.69;100.00
1726;BME280;41776;48.260;8.928;2022-10-16T05:02:41;52527.56;;;-145.69;100.00
1726;BME280;41776;48.260;8.928;2022-10-16T05:05:09;52529.53;;;-145.69;100.00
1726;BME280;41776;48.260;8.928;2022-10-16T05:07:36;52563.22;;;-145.69;100.00
1726;BME280;41776;48.260;8.928;2022-10-16T05:10:04;52551.31;;;-145.69;100.00
1726;BME280;41776;48.260;8.928;2022-10-16T05:12:30;52557.28;;;-145.69;100.00
1726;BME280;41776;48.260;8.928;2022-10-16T05:14:57;52579.06;;;-145.69;100.00
1726;BME280;41776;48.260;8.928;2022-10-16T05:17:24;52551.31;;;-145.69;100.00
1726;BME280;41776;48.260;8.928;2022-10-16T05:19:51;52575.09;;;-145.69;100.00
1726;BME280;41776;48.260;8.928;2022-10-16T05:22:19;52549.34;;;-145.69;100.00
1726;BME280;41776;48.260;8.928;2022-10-16T05:24:45;52573.13;;;-145.69;100.00
1726;BME280;41776;48.260;8.928;2022-10-16T05:27:12;52543.41;;;-145.69;100.00
1726;BME280;41776;48.260;8.928;2022-10-16T05:29:44;52559.25;;;-145.69;100.00
1726;BME280;41776;48.260;8.928;2022-10-16T05:32:11;52557.28;;;-145.69;100.00
1726;BME280;41776;48.260;8.928;2022-10-16T05:34:42;52531.53;;;-145.69;100.00
1726;BME280;41776;48.260;8.928;2022-10-16T05:37:09;52561.22;;;-145.69;100.00
1726;BME280;41776;48.260;8.928;2022-10-16T05:39:38;52573.13;;;-145.69;100.00
1726;BME280;41776;48.260;8.928;2022-10-16T05:42:08;52551.31;;;-145.69;100.00
1726;BME280;41776;48.260;8.928;2022-10-16T05:44:38;52535.47;;;-145.69;100.00
1726;BME280;41776;48.260;8.928;2022-10-16T05:47:04;52563.22;;;-145.69;100.00
1726;BME280;41776;48.260;8.928;2022-10-16T05:49:34;52553.31;;;-145.69;100.00
1726;BME280;41776;48.260;8.928;2022-10-16T05:52:00;52529.53;;;-145.69;100.00
1726;BME280;41776;48.260;8.928;2022-10-16T05:54:30;52539.44;;;-145.69;100.00
1726;BME280;41776;48.260;8.928;2022-10-16T05:56:58;52559.25;;;-145.69;100.00
1726;BME280;41776;48.260;8.928;2022-10-16T05:59:24;52509.75;;;-145.69;100.00
1726;BME280;41776;48.260;8.928;2022-10-16T06:01:50;52511.72;;;-145.69;100.00
1726;BME280;41776;48.260;8.928;2022-10-16T06:04:18;52527.56;;;-145.69;100.00
1726;BME280;41776;48.260;8.928;2022-10-16T06:06:45;52561.22;;;-145.69;100.00
1726;BME280;41776;48.260;8.928;2022-10-16T06:09:11;52519.63;;;-145.69;100.00
1726;BME280;41776;48.260;8.928;2022-10-16T06:11:38;52569.16;;;-145.69;100.00
1726;BME280;41776;48.260;8.928;2022-10-16T06:14:07;52527.56;;;-145.69;100.00
1726;BME280;41776;48.260;8.928;2022-10-16T06:16:37;52515.69;;;-145.69;100.00
1726;BME280;41776;48.260;8.928;2022-10-16T06:19:04;52519.63;;;-145.69;100.00
1726;BME280;41776;48.260;8.928;2022-10-16T06:21:31;52531.53;;;-145.69;100.00
1726;BME280;41776;48.260;8.928;2022-10-16T06:23:58;52507.75;;;-145.69;100.00
1726;BME280;41776;48.260;8.928;2022-10-16T06:26:27;52523.59;;;-145.69;100.00
1726;BME280;41776;48.260;8.928;2022-10-16T06:28:54;52539.44;;;-145.69;100.00
1726;BME280;41776;48.260;8.928;2022-10-16T06:31:22;52535.47;;;-145.69;100.00
1726;BME280;41776;48.260;8.928;2022-10-16T06:33:53;52533.50;;;-145.69;100.00
1726;BME280;41776;48.260;8.928;2022-10-16T06:36:20;52527.56;;;-145.69;100.00
1726;BME280;41776;48.260;8.928;2022-10-16T06:38:46;52503.81;;;-145.69;100.00
1726;BME280;41776;48.260;8.928;2022-10-16T06:41:15;52539.44;;;-145.69;100.00
1726;BME280;41776;48.260;8.928;2022-10-16T06:43:42;52503.81;;;-145.69;100.00
1726;BME280;41776;48.260;8.928;2022-10-16T06:46:11;52499.84;;;-145.69;100.00
1726;BME280;41776;48.260;8.928;2022-10-16T06:48:39;52515.69;;;-145.69;100.00
1726;BME280;41776;48.260;8.928;2022-10-16T06:51:08;52535.47;;;-145.69;100.00
1726;BME280;41776;48.260;8.928;2022-10-16T06:53:37;52523.59;;;-145.69;100.00
1726;BME280;41776;48.260;8.928;2022-10-16T06:56:07;52523.59;;;-145.69;100.00
1726;BME280;41776;48.260;8.928;2022-10-16T06:58:34;52476.06;;;-145.69;100.00
1726;BME280;41776;48.260;8.928;2022-10-16T07:01:01;52515.69;;;-145.69;100.00
1726;BME280;41776;48.260;8.928;2022-10-16T07:03:28;52503.81;;;-145.69;100.00
1726;BME280;41776;48.260;8.928;2022-10-16T07:05:55;52478.06;;;-145.69;100.00
1726;BME280;41776;48.260;8.928;2022-10-16T07:08:22;52493.91;;;-145.69;100.00
1726;BME280;41776;48.260;8.928;2022-10-16T07:10:58;52484.00;;;-145.69;100.00
1726;BME280;41776;48.260;8.928;2022-10-16T07:13:24;52484.00;;;-145.69;100.00
1726;BME280;41776;48.260;8.928;2022-10-16T07:15:51;52491.91;;;-145.69;100.00
1726;BME280;41776;48.260;8.928;2022-10-16T07:18:17;52513.69;;;-145.69;100.00
1726;BME280;41776;48.260;8.928;2022-10-16T07:20:44;52501.81;;;-145.69;100.00
1726;BME280;41776;48.260;8.928;2022-10-16T07:23:12;52495.88;;;-145.69;100.00
1726;BME280;41776;48.260;8.928;2022-10-16T07:25:38;52480.03;;;-145.69;100.00
1726;BME280;41776;48.260;8.928;2022-10-16T07:28:05;52493.91;;;-145.69;100.00
1726;BME280;41776;48.260;8.928;2022-10-16T07:30:34;52519.63;;;-145.69;100.00
1726;BME280;41776;48.260;8.928;2022-10-16T07:33:01;52491.91;;;-145.69;100.00
1726;BME280;41776;48.260;8.928;2022-10-16T07:35:28;52470.13;;;-145.69;100.00
1726;BME280;41776;48.260;8.928;2022-10-16T07:37:54;52484.00;;;-145.69;100.00
1726;BME280;41776;48.260;8.928;2022-10-16T07:40:22;52480.03;;;-145.69;100.00
1726;BME280;41776;48.260;8.928;2022-10-16T07:42:49;52484.00;;;-145.69;100.00
1726;BME280;41776;48.260;8.928;2022-10-16T07:45:15;52468.16;;;-145.69;100.00
1726;BME280;41776;48.260;8.928;2022-10-16T07:47:42;52464.19;;;-145.69;100.00
1726;BME280;41776;48.260;8.928;2022-10-16T07:50:08;52450.31;;;-145.69;100.00
1726;BME280;41776;48.260;8.928;2022-10-16T07:52:35;52456.28;;;-145.69;100.00
1726;BME280;41776;48.260;8.928;2022-10-16T07:55:02;52444.38;;;-145.69;100.00
1726;BME280;41776;48.260;8.928;2022-10-16T07:57:30;52448.34;;;-145.69;100.00
1726;BME280;41776;48.260;8.928;2022-10-16T07:59:56;52410.72;;;-145.69;100.00
1726;BME280;41776;48.260;8.928;2022-10-16T08:02:23;52444.38;;;-145.69;100.00
1726;BME280;41776;48.260;8.928;2022-10-16T08:04:49;52440.44;;;-145.69;100.00
1726;BME280;41776;48.260;8.928;2022-10-16T08:07:16;52438.44;;;-145.69;97.28
1726;BME280;41776;48.260;8.928;2022-10-16T08:09:43;52416.66;;;-145.69;96.34
1726;BME280;41776;48.260;8.928;2022-10-16T08:12:09;52450.31;;;-145.69;96.79
1726;BME280;41776;48.260;8.928;2022-10-16T08:14:37;52424.59;;;-145.69;97.12
1726;BME280;41776;48.260;8.928;2022-10-16T08:17:04;52412.69;;;-145.69;97.56
1726;BME280;41776;48.260;8.928;2022-10-16T08:19:31;52428.53;;;-145.69;97.20
1726;BME280;41776;48.260;8.928;2022-10-16T08:21:59;52430.53;;;-145.69;96.95
1726;BME280;41776;48.260;8.928;2022-10-16T08:24:28;52428.53;;;-145.69;94.08
1726;BME280;41776;48.260;8.928;2022-10-16T08:26:59;52408.75;;;-145.69;94.76
1726;BME280;41776;48.260;8.928;2022-10-16T08:29:25;52377.06;;;-145.69;93.86
1726;BME280;41776;48.260;8.928;2022-10-16T08:31:53;52424.59;;;-145.69;93.71
1726;BME280;41776;48.260;8.928;2022-10-16T08:34:20;52404.78;;;-145.69;96.70
1726;BME280;41776;48.260;8.928;2022-10-16T08:36:46;52406.75;;;-145.69;100.00
1726;BME280;41776;48.260;8.928;2022-10-16T08:39:13;52388.94;;;-145.69;97.23
1726;BME280;41776;48.260;8.928;2022-10-16T08:42:01;52422.59;;;-145.69;94.55
1726;BME280;41776;48.260;8.928;2022-10-16T08:50:27;52377.06;;;-145.69;88.23
1726;BME280;41776;48.260;8.928;2022-10-16T08:52:55;52388.94;;;-145.69;87.71
1726;BME280;41776;48.260;8.928;2022-10-16T08:55:41;52392.91;;;-145.69;85.19
1726;BME280;41776;48.260;8.928;2022-10-16T08:58:12;52384.97;;;-145.69;80.01
1726;BME280;41776;48.260;8.928;2022-10-16T09:00:39;52377.06;;;-145.69;80.45
1726;BME280;41776;48.260;8.928;2022-10-16T09:03:17;52353.28;;;-145.69;78.88
1726;BME280;41776;48.260;8.928;2022-10-16T09:08:42;52384.97;;;-145.69;78.33
1726;BME280;41776;48.260;8.928;2022-10-16T09:11:17;52375.06;;;-145.69;80.00
1726;BME280;41776;48.260;8.928;2022-10-16T09:13:50;52371.13;;;-145.69;71.17
1726;BME280;41776;48.260;8.928;2022-10-16T09:16:20;52386.97;;;-145.69;73.28
1726;BME280;41776;48.260;8.928;2022-10-16T09:18:58;52369.13;;;-145.69;73.22
1726;BME280;41776;48.260;8.928;2022-10-16T09:21:29;52384.97;;;-145.69;83.98
1726;BME280;41776;48.260;8.928;2022-10-16T09:23:58;52339.44;;;-145.69;73.13
1726;BME280;41776;48.260;8.928;2022-10-16T09:26:26;52383.00;;;-145.69;70.15
1726;BME280;41776;48.260;8.928;2022-10-16T09:28:52;52365.16;;;-145.69;70.99
1726;BME280;41776;48.260;8.928;2022-10-16T09:31:21;52353.28;;;-145.69;69.73
1726;BME280;41776;48.260;8.928;2022-10-16T09:33:52;52351.31;;;-145.69;68.99
1726;BME280;41776;48.260;8.928;2022-10-16T09:36:20;52349.31;;;-145.69;64.16
1726;BME280;41776;48.260;8.928;2022-10-16T09:38:47;52343.38;;;-145.69;68.38
1726;BME280;41776;48.260;8.928;2022-10-16T09:41:17;52343.38;;;-145.69;68.92
1726;BME280;41776;48.260;8.928;2022-10-16T09:43:51;52351.31;;;-145.69;71.45
1726;BME280;41776;48.260;8.928;2022-10-16T09:46:25;52309.72;;;-145.69;77.20
1726;BME280;41776;48.260;8.928;2022-10-16T09:48:55;52347.34;;;-145.69;70.96
1726;BME280;41776;48.260;8.928;2022-10-16T09:51:25;52369.13;;;-145.69;75.20
1726;BME280;41776;48.260;8.928;2022-10-16T09:53:57;52373.09;;;-145.69;67.86
1726;BME280;41776;48.260;8.928;2022-10-16T09:56:29;52379.03;;;-145.69;76.74
1726;BME280;41776;48.260;8.928;2022-10-16T09:58:59;52384.97;;;-145.69;76.46
1726;BME280;41776;48.260;8.928;2022-10-16T10:01:39;52361.22;;;-145.69;76.60
1726;BME280;41776;48.260;8.928;2022-10-16T10:04:08;52363.19;;;-145.69;76.79
1726;BME280;41776;48.260;8.928;2022-10-16T10:06:36;52369.13;;;-145.69;77.31
1726;BME280;41776;48.260;8.928;2022-10-16T10:09:06;52377.06;;;-145.69;77.04
1726;BME280;41776;48.260;8.928;2022-10-16T10:11:46;52361.22;;;-145.69;77.74
1726;BME280;41776;48.260;8.928;2022-10-16T10:14:28;52373.09;;;-145.69;73.38
1726;BME280;41776;48.260;8.928;2022-10-16T10:17:17;52341.41;;;-145.69;73.91
1726;BME280;41776;48.260;8.928;2022-10-16T10:19:51;52327.53;;;-145.69;73.00
1726;BME280;41776;48.260;8.928;2022-10-16T10:22:39;52349.31;;;-145.69;76.19
1726;BME280;41776;48.260;8.928;2022-10-16T10:25:27;52321.59;;;-145.69;79.38
1726;BME280;41776;48.260;8.928;2022-10-16T10:28:16;52331.50;;;-145.69;70.76
1726;BME280;41776;48.260;8.928;2022-10-16T10:30:49;52311.69;;;-145.69;73.74
1726;BME280;41776;48.260;8.928;2022-10-16T10:33:28;52327.53;;;-145.69;64.79
1726;BME280;41776;48.260;8.928;2022-10-16T10:36:05;52325.56;;;-145.69;63.18
1726;BME280;41776;48.260;8.928;2022-10-16T10:38:43;52329.53;;;-145.69;67.72
1726;BME280;41776;48.260;8.928;2022-10-16T10:44:21;52323.59;;;-145.69;64.37
1726;BME280;41776;48.260;8.928;2022-10-16T10:46:57;52307.75;;;-145.69;61.45
1726;BME280;41776;48.260;8.928;2022-10-16T10:49:48;52321.59;;;-145.69;67.62
1726;BME280;41776;48.260;8.928;2022-10-16T10:52:31;52297.84;;;-145.69;65.59
1726;BME280;41776;48.260;8.928;2022-10-16T10:55:10;52355.28;;;-145.69;62.48
1726;BME280;41776;48.260;8.928;2022-10-16T10:57:56;52325.56;;;-145.69;64.71
1726;BME280;41776;48.260;8.928;2022-10-16T11:00:33;52291.91;;;-145.69;63.78
1726;BME280;41776;48.260;8.928;2022-10-16T11:03:13;52309.72;;;-145.69;60.10
1726;BME280;41776;48.260;8.928;2022-10-16T11:05:51;52319.63;;;-145.69;58.84
1726;BME280;41776;48.260;8.928;2022-10-16T11:08:29;52321.59;;;-145.69;61.39
1726;BME280;41776;48.260;8.928;2022-10-16T11:11:01;52325.56;;;-145.69;63.49
1726;BME280;41776;48.260;8.928;2022-10-16T11:13:32;52335.47;;;-145.69;57.05
1726;BME280;41776;48.260;8.928;2022-10-16T11:16:09;52345.38;;;-145.69;61.73
1726;BME280;41776;48.260;8.928;2022-10-16T11:18:44;52301.81;;;-145.69;56.35
1726;BME280;41776;48.260;8.928;2022-10-16T11:21:19;52309.72;;;-145.69;55.63
1726;BME280;41776;48.260;8.928;2022-10-16T11:23:56;52274.06;;;-145.69;62.28
1726;BME280;41776;48.260;8.928;2022-10-16T11:26:30;52287.94;;;-145.69;64.29
1726;BME280;41776;48.260;8.928;2022-10-16T11:29:05;52285.97;;;-145.69;61.35
1726;BME280;41776;48.260;8.928;2022-10-16T11:31:55;52270.13;;;-145.69;59.38
1726;BME280;41776;48.260;8.928;2022-10-16T11:34:31;52283.97;;;-145.69;59.41
1726;BME280;41776;48.260;8.928;2022-10-16T11:37:07;52285.97;;;-145.69;57.87
1726;BME280;41776;48.260;8.928;2022-10-16T11:39:39;52282.00;;;-145.69;55.13
1726;BME280;41776;48.260;8.928;2022-10-16T11:42:16;52285.97;;;-145.69;58.55
1726;BME280;41776;48.260;8.928;2022-10-16T11:44:52;52270.13;;;-145.69;64.15
1726;BME280;41776;48.260;8.928;2022-10-16T11:47:27;52258.22;;;-145.69;59.54
1726;BME280;41776;48.260;8.928;2022-10-16T11:50:01;52272.09;;;-145.69;57.13
1726;BME280;41776;48.260;8.928;2022-10-16T11:52:33;52252.28;;;-145.69;59.50
1726;BME280;41776;48.260;8.928;2022-10-16T11:55:14;52242.38;;;-145.69;57.72
1726;BME280;41776;48.260;8.928;2022-10-16T11:57:45;52262.19;;;-145.69;56.99
1726;BME280;41776;48.260;8.928;2022-10-16T12:00:19;52268.13;;;-145.69;57.90
1726;BME280;41776;48.260;8.928;2022-10-16T12:02:54;52246.34;;;-145.69;52.54
1726;BME280;41776;48.260;8.928;2022-10-16T12:05:27;52252.28;;;-145.69;51.78
1726;BME280;41776;48.260;8.928;2022-10-16T12:08:04;52238.44;;;-145.69;51.54
1726;BME280;41776;48.260;8.928;2022-10-16T12:10:34;52262.19;;;-145.69;53.54
1726;BME280;41776;48.260;8.928;2022-10-16T12:13:03;52256.25;;;-145.69;54.14
1726;BME280;41776;48.260;8.928;2022-10-16T12:15:35;52280.00;;;-145.69;52.28
1726;BME280;41776;48.260;8.928;2022-10-16T12:18:20;52285.97;;;-145.69;51.71
1726;BME280;41776;48.260;8.928;2022-10-16T12:20:54;52305.75;;;-145.69;53.17
1726;BME280;41776;48.260;8.928;2022-10-16T12:23:29;52293.88;;;-145.69;55.17
1726;BME280;41776;48.260;8.928;2022-10-16T12:26:00;52256.25;;;-145.69;54.65
1726;BME280;41776;48.260;8.928;2022-10-16T12:28:28;52256.25;;;-145.69;59.40
1726;BME280;41776;48.260;8.928;2022-10-16T12:31:02;52289.91;;;-145.69;59.03
1726;BME280;41776;48.260;8.928;2022-10-16T12:33:33;52282.00;;;-145.69;56.83
1726;BME280;41776;48.260;8.928;2022-10-16T12:36:03;52278.03;;;-145.69;59.19
1726;BME280;41776;48.260;8.928;2022-10-16T12:38:37;52234.47;;;-145.69;58.79
1726;BME280;41776;48.260;8.928;2022-10-16T12:41:08;52285.97;;;-145.69;57.30
1726;BME280;41776;48.260;8.928;2022-10-16T12:43:39;52274.06;;;-145.69;59.22
1726;BME280;41776;48.260;8.928;2022-10-16T12:46:22;52258.22;;;-145.69;62.01
1726;BME280;41776;48.260;8.928;2022-10-16T12:48:49;52250.31;;;-145.69;52.46
1726;BME280;41776;48.260;8.928;2022-10-16T12:51:23;52228.53;;;-145.69;50.15
1726;BME280;41776;48.260;8.928;2022-10-16T12:53:59;52266.16;;;-145.69;56.48
1726;BME280;41776;48.260;8.928;2022-10-16T12:56:36;52246.34;;;-145.69;53.44
1726;BME280;41776;48.260;8.928;2022-10-16T12:59:12;52254.28;;;-145.69;50.37
1726;BME280;41776;48.260;8.928;2022-10-16T13:02:02;52256.25;;;-145.69;48.06
1726;BME280;41776;48.260;8.928;2022-10-16T13:04:43;52260.22;;;-145.69;51.52
1726;BME280;41776;48.260;8.928;2022-10-16T13:07:31;52258.22;;;-145.69;50.92
1726;BME280;41776;48.260;8.928;2022-10-16T13:10:15;52214.66;;;-145.69;50.17